Time;durP1;ratioP1;P1;durP2;ratioP2;P2;SDS_P1;SDS_P2;PMS_P1;PMS_P2;Temp;Humidity;BMP_temperature;BMP_pressure;BME280_temperature;BME280_humidity;BME280_pressure;Samples;Min_cycle;Max_cycle;Signal;HPM_P1;HPM_P2
2023/09/13 00:00:15;;;;;;;3.42;2.60;;;;;;;;;;5078751;28;20035;-83
2023/09/13 00:02:41;;;;;;;3.13;2.60;;;;;;;;;;5084986;28;20027;-83
2023/09/13 00:05:07;;;;;;;7.07;2.60;;;;;;;;;;5052503;28;20544;-83
2023/09/13 00:07:32;;;;;;;3.28;2.53;;;;;;;;;;5042666;28;20029;-83
2023/09/13 00:10:04;;;;;;;3.33;2.60;;;;;;;;;;5038445;28;20023;-85
2023/09/13 00:12:30;;;;;;;5.85;2.97;;;;;;;;;;5073562;28;20054;-85
2023/09/13 00:14:55;;;;;;;4.95;3.10;;;;;;;;;;5076409;28;20096;-85
2023/09/13 00:17:22;;;;;;;3.28;2.70;;;;;;;;;;5073373;28;20020;-84
2023/09/13 00:19:47;;;;;;;5.63;3.10;;;;;;;;;;5083405;28;20028;-85
2023/09/13 00:22:13;;;;;;;3.58;2.85;;;;;;;;;;5075942;28;20045;-84
2023/09/13 00:24:38;;;;;;;3.70;2.97;;;;;;;;;;5060003;28;20024;-86
2023/09/13 00:27:04;;;;;;;3.28;2.47;;;;;;;;;;5069933;28;20438;-86
2023/09/13 00:29:33;;;;;;;3.72;2.70;;;;;;;;;;5077057;28;20020;-84
2023/09/13 00:31:58;;;;;;;4.05;2.80;;;;;;;;;;5062542;28;20029;-85
2023/09/13 00:34:24;;;;;;;3.63;2.63;;;;;;;;;;5074731;28;20024;-84
2023/09/13 00:36:49;;;;;;;4.28;2.92;;;;;;;;;;5072348;28;20064;-86
2023/09/13 00:39:14;;;;;;;6.28;2.60;;;;;;;;;;5065074;28;20373;-85
2023/09/13 00:41:40;;;;;;;3.00;2.60;;;;;;;;;;5070526;28;20467;-85
2023/09/13 00:44:05;;;;;;;3.95;2.08;;;;;;;;;;5068005;28;20024;-86
2023/09/13 00:46:31;;;;;;;3.67;2.20;;;;;;;;;;5088727;28;20099;-86
2023/09/13 00:48:57;;;;;;;3.42;2.47;;;;;;;;;;5079028;28;20610;-86
2023/09/13 00:51:23;;;;;;;6.63;2.40;;;;;;;;;;5055335;28;20017;-86
2023/09/13 00:53:48;;;;;;;3.42;2.25;;;;;;;;;;5075061;28;20085;-86
2023/09/13 00:56:15;;;;;;;3.95;2.70;;;;;;;;;;5075281;28;20016;-85
2023/09/13 00:58:40;;;;;;;3.15;2.50;;;;;;;;;;5078230;28;20021;-86
2023/09/13 01:01:06;;;;;;;7.28;2.70;;;;;;;;;;5075499;28;20035;-84
2023/09/13 01:03:32;;;;;;;5.55;2.78;;;;;;;;;;5073488;28;20024;-86
2023/09/13 01:05:58;;;;;;;2.85;2.08;;;;;;;;;;5033790;28;20711;-86
2023/09/13 01:08:24;;;;;;;6.18;2.65;;;;;;;;;;5067071;28;20029;-86
2023/09/13 01:10:49;;;;;;;4.28;2.70;;;;;;;;;;5074036;28;20275;-86
2023/09/13 01:13:15;;;;;;;3.03;2.50;;;;;;;;;;5068575;28;20039;-86
2023/09/13 01:15:51;;;;;;;3.70;2.92;;;;;;;;;;5059318;28;20022;-86
2023/09/13 01:18:33;;;;;;;5.15;2.72;;;;;;;;;;5068884;28;20049;-86
2023/09/13 01:21:10;;;;;;;;;;;;;;;;;;5069296;28;20109;-86
2023/09/13 01:24:03;;;;;;;7.43;2.65;;;;;;;;;;4994558;28;19913;-86
2023/09/13 01:26:46;;;;;;;4.05;2.85;;;;;;;;;;5071769;28;20085;-86
2023/09/13 01:29:15;;;;;;;3.95;2.65;;;;;;;;;;4998202;28;20049;-86
2023/09/13 01:31:41;;;;;;;3.03;2.35;;;;;;;;;;5069979;28;20057;-86
2023/09/13 01:34:07;;;;;;;4.05;2.20;;;;;;;;;;5057214;28;20030;-86
2023/09/13 01:36:32;;;;;;;3.50;2.60;;;;;;;;;;5050477;28;20059;-86
2023/09/13 01:38:57;;;;;;;4.97;2.80;;;;;;;;;;4990166;28;20089;-86
2023/09/13 01:41:27;;;;;;;3.38;2.47;;;;;;;;;;5056231;28;20426;-86
2023/09/13 01:43:54;;;;;;;3.85;2.50;;;;;;;;;;4994432;28;20464;-86
2023/09/13 01:46:27;;;;;;;3.70;2.63;;;;;;;;;;5059784;28;20014;-86
2023/09/13 01:48:53;;;;;;;4.75;2.75;;;;;;;;;;5078543;28;20528;-86
2023/09/13 01:51:19;;;;;;;3.97;2.50;;;;;;;;;;4986562;28;20019;-86
2023/09/13 01:53:45;;;;;;;4.25;2.72;;;;;;;;;;5076127;28;20141;-86
2023/09/13 01:56:10;;;;;;;3.60;2.90;;;;;;;;;;5012074;28;20033;-85
2023/09/13 01:58:35;;;;;;;4.88;2.83;;;;;;;;;;5072631;28;20042;-85
2023/09/13 02:01:01;;;;;;;6.88;2.45;;;;;;;;;;5103692;28;20129;-86
2023/09/13 02:03:26;;;;;;;3.42;2.58;;;;;;;;;;5064401;28;20058;-86
2023/09/13 02:05:51;;;;;;;4.72;2.78;;;;;;;;;;5051768;28;20034;-87
2023/09/13 02:08:17;;;;;;;4.43;3.05;;;;;;;;;;5014393;28;20030;-86
2023/09/13 02:10:45;;;;;;;5.13;2.75;;;;;;;;;;5066914;28;20030;-86
2023/09/13 02:13:11;;;;;;;4.57;3.22;;;;;;;;;;4998833;28;20068;-87
2023/09/13 02:15:40;;;;;;;5.20;2.92;;;;;;;;;;5065081;28;20038;-86
2023/09/13 02:18:06;;;;;;;4.18;2.80;;;;;;;;;;5071796;22;20035;-81
2023/09/13 02:20:31;;;;;;;3.85;2.75;;;;;;;;;;5064784;28;20082;-80
2023/09/13 02:22:56;;;;;;;4.28;2.80;;;;;;;;;;5061366;28;20059;-81
2023/09/13 02:25:22;;;;;;;4.47;2.42;;;;;;;;;;5085086;28;20069;-80
2023/09/13 02:27:47;;;;;;;4.88;3.05;;;;;;;;;;5087059;28;20107;-80
2023/09/13 02:30:13;;;;;;;3.70;2.50;;;;;;;;;;5077607;28;20071;-79
2023/09/13 02:32:38;;;;;;;4.97;2.83;;;;;;;;;;5078413;28;20029;-81
2023/09/13 02:35:04;;;;;;;4.50;2.90;;;;;;;;;;5080064;28;20028;-82
2023/09/13 02:37:30;;;;;;;5.20;3.08;;;;;;;;;;5076053;28;20494;-81
2023/09/13 02:39:57;;;;;;;3.75;2.70;;;;;;;;;;5080898;28;20032;-82
2023/09/13 02:42:23;;;;;;;3.92;2.75;;;;;;;;;;5083221;28;20095;-81
2023/09/13 02:44:48;;;;;;;5.03;2.75;;;;;;;;;;5078451;28;20074;-81
2023/09/13 02:47:14;;;;;;;4.22;2.85;;;;;;;;;;5057273;28;20115;-82
2023/09/13 02:49:40;;;;;;;4.28;2.92;;;;;;;;;;5081080;28;20167;-81
2023/09/13 02:52:05;;;;;;;3.20;2.55;;;;;;;;;;5062775;28;20054;-81
2023/09/13 02:54:30;;;;;;;3.95;2.80;;;;;;;;;;5082797;28;20029;-81
2023/09/13 02:56:56;;;;;;;3.30;2.88;;;;;;;;;;5063907;28;20024;-81
2023/09/13 02:59:21;;;;;;;2.95;2.60;;;;;;;;;;5055437;28;20029;-80
2023/09/13 03:01:48;;;;;;;2.80;2.33;;;;;;;;;;5054672;28;20110;-80
2023/09/13 03:04:13;;;;;;;2.72;2.38;;;;;;;;;;5081252;28;20129;-82
2023/09/13 03:06:39;;;;;;;3.63;2.13;;;;;;;;;;5081207;28;20043;-81
2023/09/13 03:09:05;;;;;;;2.53;2.10;;;;;;;;;;5078197;28;20024;-79
2023/09/13 03:11:30;;;;;;;3.28;2.22;;;;;;;;;;5061932;28;20027;-80
2023/09/13 03:13:55;;;;;;;5.97;2.13;;;;;;;;;;5069047;28;20159;-80
2023/09/13 03:16:22;;;;;;;2.97;2.00;;;;;;;;;;5054581;28;20016;-79
2023/09/13 03:18:49;;;;;;;3.03;2.08;;;;;;;;;;5058879;28;20035;-80
2023/09/13 03:21:15;;;;;;;2.88;2.22;;;;;;;;;;5075782;28;20534;-80
2023/09/13 03:23:43;;;;;;;3.25;2.22;;;;;;;;;;5050293;28;20066;-80
2023/09/13 03:26:18;;;;;;;2.75;2.10;;;;;;;;;;5074727;28;20027;-78
2023/09/13 03:28:49;;;;;;;4.75;2.17;;;;;;;;;;5065866;28;20035;-79
2023/09/13 03:31:17;;;;;;;2.95;2.13;;;;;;;;;;5065818;28;20031;-78
2023/09/13 03:33:43;;;;;;;2.72;2.22;;;;;;;;;;5053598;28;20055;-78
2023/09/13 03:36:10;;;;;;;3.85;2.63;;;;;;;;;;5050875;28;20024;-80
2023/09/13 03:38:40;;;;;;;2.20;1.90;;;;;;;;;;5074973;28;20074;-79
2023/09/13 03:41:19;;;;;;;2.97;2.45;;;;;;;;;;5077568;28;20020;-79
2023/09/13 03:43:45;;;;;;;3.70;2.45;;;;;;;;;;5071763;28;20021;-79
2023/09/13 03:46:10;;;;;;;3.55;2.20;;;;;;;;;;5050979;28;20024;-78
2023/09/13 03:48:37;;;;;;;2.80;1.98;;;;;;;;;;5077177;28;20033;-79
2023/09/13 03:51:04;;;;;;;2.90;2.10;;;;;;;;;;5058713;28;20035;-79
2023/09/13 03:53:29;;;;;;;2.75;2.30;;;;;;;;;;5058349;28;20111;-79
2023/09/13 03:55:55;;;;;;;2.65;2.20;;;;;;;;;;5075967;28;20063;-80
2023/09/13 03:58:21;;;;;;;3.20;2.35;;;;;;;;;;5084505;28;20025;-80
2023/09/13 04:00:46;;;;;;;3.83;2.30;;;;;;;;;;5058274;28;20056;-80
2023/09/13 04:03:13;;;;;;;2.45;2.03;;;;;;;;;;5059044;28;20390;-80
2023/09/13 04:05:38;;;;;;;2.63;2.20;;;;;;;;;;5065415;28;20020;-80
2023/09/13 04:08:04;;;;;;;3.88;2.72;;;;;;;;;;5058264;28;20035;-79
2023/09/13 04:10:29;;;;;;;2.55;2.10;;;;;;;;;;5082817;28;20028;-79
2023/09/13 04:12:54;;;;;;;4.95;2.35;;;;;;;;;;5069706;28;20028;-80
2023/09/13 04:15:20;;;;;;;3.88;2.53;;;;;;;;;;5076531;28;20406;-80
2023/09/13 04:17:45;;;;;;;4.80;2.10;;;;;;;;;;5076294;28;20040;-79
2023/09/13 04:20:12;;;;;;;2.97;1.98;;;;;;;;;;5058206;28;20032;-80
2023/09/13 04:22:37;;;;;;;3.63;2.40;;;;;;;;;;5076395;28;20024;-80
2023/09/13 04:25:06;;;;;;;3.13;2.20;;;;;;;;;;5057944;28;20027;-80
2023/09/13 04:27:32;;;;;;;3.05;2.25;;;;;;;;;;5077793;28;20020;-80
2023/09/13 04:29:57;;;;;;;2.70;2.35;;;;;;;;;;5077767;28;20055;-80
2023/09/13 04:32:26;;;;;;;2.65;1.95;;;;;;;;;;4985160;22;20051;-80
2023/09/13 04:34:52;;;;;;;3.85;2.30;;;;;;;;;;4966348;28;20039;-83
2023/09/13 04:37:17;;;;;;;2.20;2.00;;;;;;;;;;5002496;28;20024;-82
2023/09/13 04:39:43;;;;;;;4.45;2.33;;;;;;;;;;5008529;28;20226;-82
2023/09/13 04:42:08;;;;;;;5.38;2.42;;;;;;;;;;5048308;28;20041;-83
2023/09/13 04:44:34;;;;;;;3.75;2.25;;;;;;;;;;4994482;28;20124;-83
2023/09/13 04:46:59;;;;;;;2.10;1.85;;;;;;;;;;4987324;28;20056;-82
2023/09/13 04:49:25;;;;;;;4.82;2.55;;;;;;;;;;5010896;28;20015;-82
2023/09/13 04:51:50;;;;;;;3.60;2.53;;;;;;;;;;4987961;28;20480;-82
2023/09/13 04:54:16;;;;;;;4.43;2.88;;;;;;;;;;5009047;28;20086;-82
2023/09/13 04:56:41;;;;;;;3.00;2.47;;;;;;;;;;4976295;28;20022;-82
2023/09/13 04:59:06;;;;;;;4.28;2.35;;;;;;;;;;4985583;28;20701;-82
2023/09/13 05:01:32;;;;;;;2.67;2.17;;;;;;;;;;4964415;28;20032;-81
2023/09/13 05:03:58;;;;;;;3.17;2.42;;;;;;;;;;4976119;28;20037;-81
2023/09/13 05:06:23;;;;;;;3.10;2.25;;;;;;;;;;5019827;28;20027;-82
2023/09/13 05:08:50;;;;;;;4.20;2.30;;;;;;;;;;4976653;28;20800;-83
2023/09/13 05:11:16;;;;;;;2.97;2.10;;;;;;;;;;4987239;28;20103;-84
2023/09/13 05:13:41;;;;;;;4.68;2.17;;;;;;;;;;4982677;28;20047;-81
2023/09/13 05:16:07;;;;;;;3.10;2.28;;;;;;;;;;5011785;28;20720;-81
2023/09/13 05:18:33;;;;;;;3.17;2.30;;;;;;;;;;5036910;28;20023;-81
2023/09/13 05:20:58;;;;;;;2.92;2.50;;;;;;;;;;5013506;28;20533;-82
2023/09/13 05:23:23;;;;;;;5.88;2.58;;;;;;;;;;4960876;28;20130;-81
2023/09/13 05:25:49;;;;;;;3.33;2.35;;;;;;;;;;5023466;28;20466;-81
2023/09/13 05:28:17;;;;;;;3.38;2.05;;;;;;;;;;4975649;28;20031;-82
2023/09/13 05:30:47;;;;;;;3.72;2.30;;;;;;;;;;4977050;28;20026;-80
2023/09/13 05:33:12;;;;;;;2.60;2.08;;;;;;;;;;4966380;28;20030;-82
2023/09/13 05:35:37;;;;;;;2.10;1.90;;;;;;;;;;4961800;28;20098;-81
2023/09/13 05:38:03;;;;;;;2.50;1.90;;;;;;;;;;5020471;28;20034;-81
2023/09/13 05:40:29;;;;;;;3.50;2.13;;;;;;;;;;4980588;28;20479;-81
2023/09/13 05:42:56;;;;;;;2.47;2.05;;;;;;;;;;4981738;28;20084;-82
2023/09/13 05:45:23;;;;;;;2.25;1.98;;;;;;;;;;4976386;28;20017;-83
2023/09/13 05:47:49;;;;;;;2.17;1.92;;;;;;;;;;4981936;28;20031;-82
2023/09/13 05:50:14;;;;;;;2.08;1.80;;;;;;;;;;4984547;28;20034;-82
2023/09/13 05:52:40;;;;;;;3.03;1.77;;;;;;;;;;4981437;28;20419;-83
2023/09/13 05:55:07;;;;;;;2.92;1.98;;;;;;;;;;4970308;28;20063;-82
2023/09/13 05:57:32;;;;;;;3.50;2.00;;;;;;;;;;4975199;28;20031;-80
2023/09/13 05:59:57;;;;;;;3.70;2.30;;;;;;;;;;4984474;28;20027;-82
2023/09/13 06:02:23;;;;;;;2.20;2.00;;;;;;;;;;4995789;28;20023;-81
2023/09/13 06:04:48;;;;;;;2.47;1.88;;;;;;;;;;5040819;28;20125;-80
2023/09/13 06:07:13;;;;;;;2.10;1.88;;;;;;;;;;4991495;28;20024;-83
2023/09/13 06:09:39;;;;;;;2.08;1.88;;;;;;;;;;5039195;28;20030;-82
2023/09/13 06:12:04;;;;;;;1.83;1.73;;;;;;;;;;4978725;28;20030;-82
2023/09/13 06:14:31;;;;;;;1.90;1.50;;;;;;;;;;4995376;28;20030;-81
2023/09/13 06:16:57;;;;;;;2.40;1.90;;;;;;;;;;4975316;28;20035;-83
2023/09/13 06:19:22;;;;;;;3.42;2.28;;;;;;;;;;4994119;28;20030;-81
2023/09/13 06:21:48;;;;;;;1.83;1.65;;;;;;;;;;4956078;28;20022;-84
2023/09/13 06:24:13;;;;;;;3.10;1.83;;;;;;;;;;4974730;28;20030;-81
2023/09/13 06:26:39;;;;;;;2.50;1.65;;;;;;;;;;5014758;28;20056;-81
2023/09/13 06:29:05;;;;;;;2.00;1.67;;;;;;;;;;5000359;28;20021;-81
2023/09/13 06:31:31;;;;;;;1.73;1.63;;;;;;;;;;5048926;28;20027;-81
2023/09/13 06:33:56;;;;;;;3.00;1.77;;;;;;;;;;4999513;28;20051;-81
2023/09/13 06:36:22;;;;;;;2.08;1.83;;;;;;;;;;5063784;28;20099;-81
2023/09/13 06:38:47;;;;;;;1.70;1.60;;;;;;;;;;5032755;28;20048;-80
2023/09/13 06:41:13;;;;;;;2.10;1.77;;;;;;;;;;4992381;28;20081;-81
2023/09/13 06:43:38;;;;;;;2.85;1.92;;;;;;;;;;4983758;28;20023;-81
2023/09/13 06:46:04;;;;;;;4.30;1.95;;;;;;;;;;4975162;28;20022;-80
2023/09/13 06:48:29;;;;;;;2.05;1.63;;;;;;;;;;4965871;28;20034;-81
2023/09/13 06:50:55;;;;;;;3.10;1.90;;;;;;;;;;4979337;28;20022;-82
2023/09/13 06:53:20;;;;;;;2.92;1.80;;;;;;;;;;5006917;28;20038;-82
2023/09/13 06:55:46;;;;;;;3.08;1.88;;;;;;;;;;5009108;28;20507;-81
2023/09/13 06:58:12;;;;;;;3.28;1.80;;;;;;;;;;5036334;28;20070;-79
2023/09/13 07:00:39;;;;;;;7.57;1.83;;;;;;;;;;4952189;28;20030;-79
2023/09/13 07:03:05;;;;;;;1.70;1.52;;;;;;;;;;4973498;28;20031;-81
2023/09/13 07:05:30;;;;;;;3.53;1.92;;;;;;;;;;4983629;28;20117;-83
2023/09/13 07:07:56;;;;;;;3.05;1.80;;;;;;;;;;5000054;28;20548;-83
2023/09/13 07:10:21;;;;;;;2.20;1.77;;;;;;;;;;4986531;28;20027;-82
2023/09/13 07:12:47;;;;;;;1.75;1.42;;;;;;;;;;4979553;28;20400;-81
2023/09/13 07:15:12;;;;;;;2.92;2.28;;;;;;;;;;4976652;28;20431;-80
2023/09/13 07:17:37;;;;;;;1.75;1.55;;;;;;;;;;5022015;28;20030;-80
2023/09/13 07:20:05;;;;;;;1.58;1.48;;;;;;;;;;4979094;28;20109;-81
2023/09/13 07:22:30;;;;;;;2.10;1.75;;;;;;;;;;4969555;28;20037;-81
2023/09/13 07:24:56;;;;;;;5.93;1.90;;;;;;;;;;4977723;28;20050;-81
2023/09/13 07:27:21;;;;;;;1.90;1.70;;;;;;;;;;4979384;28;20026;-81
2023/09/13 07:29:47;;;;;;;2.45;1.80;;;;;;;;;;5050410;28;20035;-81
2023/09/13 07:32:13;;;;;;;3.70;1.63;;;;;;;;;;4965970;28;20073;-81
2023/09/13 07:34:38;;;;;;;1.63;1.40;;;;;;;;;;5004267;28;20299;-81
2023/09/13 07:37:04;;;;;;;4.63;1.98;;;;;;;;;;4996430;28;20098;-81
2023/09/13 07:39:29;;;;;;;2.92;1.77;;;;;;;;;;5014083;28;20106;-81
2023/09/13 07:41:54;;;;;;;1.65;1.55;;;;;;;;;;4986924;28;20069;-81
2023/09/13 07:44:20;;;;;;;2.42;1.50;;;;;;;;;;4992606;28;20034;-81
2023/09/13 07:46:45;;;;;;;2.20;1.92;;;;;;;;;;5012846;28;20479;-81
2023/09/13 07:49:10;;;;;;;1.40;1.27;;;;;;;;;;5037192;28;20345;-81
2023/09/13 07:51:36;;;;;;;3.15;1.88;;;;;;;;;;4996210;28;20027;-81
2023/09/13 07:54:04;;;;;;;1.40;1.30;;;;;;;;;;4990253;28;20028;-81
2023/09/13 07:56:32;;;;;;;1.63;1.52;;;;;;;;;;4977596;28;20453;-81
2023/09/13 07:58:57;;;;;;;1.40;1.30;;;;;;;;;;5020822;28;20043;-81
2023/09/13 08:01:23;;;;;;;2.45;1.63;;;;;;;;;;5000165;28;20767;-81
2023/09/13 08:03:48;;;;;;;1.48;1.38;;;;;;;;;;5007022;28;20045;-81
2023/09/13 08:06:13;;;;;;;2.20;1.35;;;;;;;;;;5049169;28;20035;-81
2023/09/13 08:08:38;;;;;;;2.10;1.45;;;;;;;;;;5018312;28;20027;-81
2023/09/13 08:11:04;;;;;;;1.27;1.17;;;;;;;;;;5005364;28;20027;-81
2023/09/13 08:13:29;;;;;;;1.60;1.50;;;;;;;;;;4977480;28;20060;-81
2023/09/13 08:15:55;;;;;;;1.60;1.50;;;;;;;;;;4993692;28;20041;-81
2023/09/13 08:18:20;;;;;;;3.33;1.90;;;;;;;;;;5032744;28;20093;-81
2023/09/13 08:20:46;;;;;;;2.88;1.98;;;;;;;;;;5033717;28;20034;-82
2023/09/13 08:23:12;;;;;;;1.75;1.48;;;;;;;;;;4981020;28;20026;-82
2023/09/13 08:25:37;;;;;;;2.50;1.45;;;;;;;;;;4979421;28;20030;-81
2023/09/13 08:28:03;;;;;;;2.50;1.75;;;;;;;;;;5056463;28;20023;-81
2023/09/13 08:30:29;;;;;;;4.47;1.80;;;;;;;;;;5063680;28;20021;-81
2023/09/13 08:32:55;;;;;;;3.67;2.10;;;;;;;;;;4999319;28;20050;-82
2023/09/13 08:35:20;;;;;;;2.30;1.73;;;;;;;;;;4977238;28;20023;-81
2023/09/13 08:37:45;;;;;;;2.67;2.30;;;;;;;;;;5010574;28;20025;-82
2023/09/13 08:40:11;;;;;;;3.88;2.25;;;;;;;;;;5053653;28;20026;-82
2023/09/13 08:42:38;;;;;;;3.17;2.33;;;;;;;;;;4979158;28;20095;-81
2023/09/13 08:45:04;;;;;;;2.97;2.22;;;;;;;;;;4973593;28;20034;-83
2023/09/13 08:47:31;;;;;;;4.50;2.20;;;;;;;;;;5009785;28;20025;-82
2023/09/13 08:49:58;;;;;;;3.30;1.90;;;;;;;;;;5017243;28;20029;-82
2023/09/13 08:52:25;;;;;;;3.05;2.17;;;;;;;;;;4970628;28;20121;-82
2023/09/13 08:54:53;;;;;;;3.38;2.22;;;;;;;;;;4958513;28;20522;-83
2023/09/13 08:57:20;;;;;;;2.60;2.20;;;;;;;;;;5003059;28;20029;-82
2023/09/13 08:59:45;;;;;;;2.97;2.08;;;;;;;;;;4998461;28;20015;-83
2023/09/13 09:02:18;;;;;;;2.97;2.17;;;;;;;;;;5023023;23;20041;-81
2023/09/13 09:04:47;;;;;;;2.20;1.75;;;;;;;;;;5051738;28;20045;-80
2023/09/13 09:07:14;;;;;;;1.80;1.70;;;;;;;;;;5056360;28;20024;-80
2023/09/13 09:09:39;;;;;;;4.65;2.38;;;;;;;;;;5049626;28;20017;-81
2023/09/13 09:12:07;;;;;;;3.00;1.90;;;;;;;;;;5054121;28;20570;-81
2023/09/13 09:14:36;;;;;;;2.92;2.10;;;;;;;;;;5079553;22;20049;-86
2023/09/13 09:17:02;;;;;;;1.92;1.73;;;;;;;;;;5042619;28;20030;-86
2023/09/13 09:19:29;;;;;;;2.50;2.30;;;;;;;;;;5049643;28;20014;-86
2023/09/13 09:21:58;;;;;;;2.10;1.88;;;;;;;;;;5030293;28;20491;-86
2023/09/13 09:24:23;;;;;;;2.65;2.17;;;;;;;;;;5027661;28;20405;-86
2023/09/13 09:26:48;;;;;;;2.20;1.95;;;;;;;;;;5013717;28;20083;-87
2023/09/13 09:29:18;;;;;;;2.30;1.60;;;;;;;;;;5017759;28;20026;-86
2023/09/13 09:31:44;;;;;;;2.72;1.98;;;;;;;;;;5019493;28;20584;-85
2023/09/13 09:34:10;;;;;;;2.13;1.80;;;;;;;;;;5019856;28;20080;-85
2023/09/13 09:36:43;;;;;;;2.78;2.13;;;;;;;;;;5047398;28;20034;-85
2023/09/13 09:39:08;;;;;;;3.67;1.90;;;;;;;;;;5009687;28;20079;-85
2023/09/13 09:41:35;;;;;;;2.38;2.00;;;;;;;;;;5013190;28;20026;-85
2023/09/13 09:44:21;;;;;;;2.45;1.95;;;;;;;;;;5014821;28;20029;-86
2023/09/13 09:46:47;;;;;;;2.45;1.88;;;;;;;;;;5029815;28;20129;-86
2023/09/13 09:49:12;;;;;;;3.22;2.20;;;;;;;;;;5015965;28;20493;-87
2023/09/13 09:51:38;;;;;;;2.90;2.20;;;;;;;;;;5027245;28;20018;-87
2023/09/13 09:54:03;;;;;;;2.45;2.20;;;;;;;;;;5014333;28;20026;-86
2023/09/13 09:56:29;;;;;;;5.43;2.00;;;;;;;;;;5018414;28;20029;-86
2023/09/13 09:58:55;;;;;;;1.92;1.55;;;;;;;;;;5006149;28;20026;-86
2023/09/13 10:01:20;;;;;;;2.65;1.70;;;;;;;;;;5026049;28;20078;-87
2023/09/13 10:03:46;;;;;;;5.07;2.10;;;;;;;;;;5042021;28;20501;-86
2023/09/13 10:06:13;;;;;;;3.15;2.50;;;;;;;;;;5013157;28;20029;-86
2023/09/13 10:08:45;;;;;;;2.60;2.08;;;;;;;;;;5012831;28;20022;-86
2023/09/13 10:11:13;;;;;;;2.90;1.80;;;;;;;;;;5012007;28;20033;-87
2023/09/13 10:13:40;;;;;;;4.40;2.17;;;;;;;;;;5011235;28;20026;-87
2023/09/13 10:16:08;;;;;;;2.00;1.80;;;;;;;;;;5024998;28;20061;-87
2023/09/13 10:18:52;;;;;;;3.08;2.00;;;;;;;;;;5023510;28;20077;-86
2023/09/13 10:21:29;;;;;;;3.97;1.98;;;;;;;;;;5022111;28;20025;-85
2023/09/13 10:24:02;;;;;;;2.45;1.90;;;;;;;;;;5012435;28;20057;-85
2023/09/13 10:26:31;;;;;;;2.42;1.88;;;;;;;;;;5032577;28;20029;-85
2023/09/13 10:29:04;;;;;;;2.58;1.67;;;;;;;;;;5033199;28;20029;-85
2023/09/13 10:31:32;;;;;;;2.63;1.60;;;;;;;;;;5013135;28;20033;-86
2023/09/13 10:34:03;;;;;;;2.08;1.88;;;;;;;;;;5000709;28;20022;-85
2023/09/13 10:36:37;;;;;;;3.50;1.95;;;;;;;;;;5015153;28;20025;-86
2023/09/13 10:39:37;;;;;;;3.60;1.50;;;;;;;;;;5017444;28;20044;-85
2023/09/13 10:42:10;;;;;;;2.22;1.63;;;;;;;;;;4968247;28;20041;-85
2023/09/13 10:44:36;;;;;;;2.50;1.80;;;;;;;;;;5015149;28;20515;-86
2023/09/13 10:47:04;;;;;;;2.42;1.95;;;;;;;;;;5028666;28;20048;-86
2023/09/13 10:49:29;;;;;;;4.40;2.45;;;;;;;;;;5019063;28;20033;-85
2023/09/13 10:51:57;;;;;;;2.08;1.88;;;;;;;;;;5029927;28;20096;-86
2023/09/13 10:54:24;;;;;;;1.90;1.40;;;;;;;;;;5029071;28;20026;-86
2023/09/13 10:56:50;;;;;;;2.08;1.88;;;;;;;;;;5016736;28;20041;-85
2023/09/13 10:59:18;;;;;;;2.53;2.03;;;;;;;;;;5034666;28;20520;-86
2023/09/13 11:01:46;;;;;;;2.60;2.00;;;;;;;;;;5016500;28;20029;-86
2023/09/13 11:04:15;;;;;;;2.10;1.85;;;;;;;;;;5018554;28;20547;-86
2023/09/13 11:06:43;;;;;;;2.40;1.95;;;;;;;;;;5047783;28;20037;-87
2023/09/13 11:09:13;;;;;;;1.77;1.65;;;;;;;;;;5025121;28;20104;-86
2023/09/13 11:11:39;;;;;;;2.45;1.80;;;;;;;;;;5019937;28;20030;-86
2023/09/13 11:14:11;;;;;;;3.22;2.70;;;;;;;;;;5024434;28;20029;-86
2023/09/13 11:16:39;;;;;;;2.75;2.10;;;;;;;;;;5028017;28;20105;-86
2023/09/13 11:19:09;;;;;;;2.55;1.92;;;;;;;;;;5019665;28;20048;-86
2023/09/13 11:21:52;;;;;;;3.28;2.13;;;;;;;;;;5007118;28;20046;-86
2023/09/13 11:24:34;;;;;;;2.67;2.22;;;;;;;;;;5037743;28;20042;-86
2023/09/13 11:27:09;;;;;;;3.38;2.42;;;;;;;;;;4997358;28;20129;-87
2023/09/13 11:29:52;;;;;;;3.70;2.30;;;;;;;;;;5021238;28;20069;-86
2023/09/13 11:32:21;;;;;;;2.42;1.83;;;;;;;;;;5048857;28;20049;-86
2023/09/13 11:35:00;;;;;;;4.00;2.15;;;;;;;;;;5029527;28;20026;-86
2023/09/13 11:37:27;;;;;;;4.53;2.17;;;;;;;;;;5023549;28;20468;-86
2023/09/13 11:40:08;;;;;;;2.92;2.28;;;;;;;;;;5027681;28;20108;-86
2023/09/13 11:42:33;;;;;;;2.07;1.87;;;;;;;;;;5013370;28;20026;-86
2023/09/13 11:44:59;;;;;;;5.22;2.17;;;;;;;;;;5019713;28;20301;-87
2023/09/13 11:47:26;;;;;;;2.72;2.13;;;;;;;;;;5026645;28;20042;-87
2023/09/13 11:49:55;;;;;;;3.40;2.55;;;;;;;;;;5046501;28;20053;-86
2023/09/13 11:52:21;;;;;;;4.65;2.40;;;;;;;;;;5016271;28;20028;-86
2023/09/13 11:54:55;;;;;;;2.78;1.75;;;;;;;;;;5010984;28;20386;-87
2023/09/13 11:57:24;;;;;;;2.72;1.92;;;;;;;;;;5018449;28;20030;-87
2023/09/13 11:59:53;;;;;;;2.33;2.10;;;;;;;;;;5015578;28;20165;-86
2023/09/13 12:02:19;;;;;;;2.20;1.73;;;;;;;;;;5018093;28;20030;-86
2023/09/13 12:04:46;;;;;;;3.20;1.77;;;;;;;;;;5033811;28;20026;-86
2023/09/13 12:07:11;;;;;;;2.45;2.15;;;;;;;;;;5039775;28;20092;-87
2023/09/13 12:09:37;;;;;;;2.17;1.65;;;;;;;;;;5013330;28;20397;-86
2023/09/13 12:12:03;;;;;;;1.88;1.70;;;;;;;;;;5007659;28;20018;-86
2023/09/13 12:14:31;;;;;;;2.17;1.73;;;;;;;;;;5014022;28;20034;-86
2023/09/13 12:16:57;;;;;;;1.60;1.50;;;;;;;;;;5044847;28;20029;-87
2023/09/13 12:19:24;;;;;;;1.58;1.35;;;;;;;;;;5030401;28;20124;-86
2023/09/13 12:21:49;;;;;;;1.70;1.60;;;;;;;;;;5015922;28;20033;-86
2023/09/13 12:24:24;;;;;;;3.03;2.00;;;;;;;;;;5013988;28;20026;-86
2023/09/13 12:26:53;;;;;;;3.08;1.55;;;;;;;;;;5032186;28;20021;-87
2023/09/13 12:29:19;;;;;;;2.45;1.60;;;;;;;;;;5006392;28;20027;-87
2023/09/13 12:31:45;;;;;;;2.20;1.58;;;;;;;;;;5020380;28;20029;-87
2023/09/13 12:34:11;;;;;;;4.50;1.92;;;;;;;;;;5009427;28;20169;-87
2023/09/13 12:36:37;;;;;;;1.55;1.42;;;;;;;;;;5026140;28;20029;-86
2023/09/13 12:39:11;;;;;;;2.38;1.65;;;;;;;;;;5018471;28;20091;-87
2023/09/13 12:41:36;;;;;;;2.35;1.65;;;;;;;;;;5017171;28;20030;-87
2023/09/13 12:44:02;;;;;;;4.72;2.00;;;;;;;;;;5026579;28;20547;-87
2023/09/13 12:46:28;;;;;;;2.47;1.55;;;;;;;;;;5020976;28;20108;-86
2023/09/13 12:48:55;;;;;;;1.67;1.27;;;;;;;;;;5030016;28;20029;-87
2023/09/13 12:51:24;;;;;;;1.92;1.80;;;;;;;;;;5029232;28;20044;-86
2023/09/13 12:53:51;;;;;;;1.85;1.65;;;;;;;;;;5033980;28;20029;-87
2023/09/13 12:56:17;;;;;;;1.85;1.65;;;;;;;;;;5009213;28;20394;-87
2023/09/13 12:58:47;;;;;;;2.72;1.95;;;;;;;;;;5007513;28;20018;-87
2023/09/13 13:01:12;;;;;;;1.40;1.30;;;;;;;;;;5031968;28;20028;-87
2023/09/13 13:04:01;;;;;;;1.70;1.60;;;;;;;;;;5047559;28;20013;-87
2023/09/13 13:06:27;;;;;;;2.28;1.40;;;;;;;;;;5028844;28;20043;-87
2023/09/13 13:09:04;;;;;;;2.80;1.92;;;;;;;;;;5037173;28;20029;-87
2023/09/13 13:11:33;;;;;;;1.65;1.42;;;;;;;;;;5019676;28;20030;-87
2023/09/13 13:13:58;;;;;;;2.60;1.63;;;;;;;;;;5013128;28;20029;-87
2023/09/13 13:16:23;;;;;;;1.85;1.60;;;;;;;;;;5012021;28;20030;-87
2023/09/13 13:18:50;;;;;;;1.98;1.52;;;;;;;;;;5033527;28;20064;-87
2023/09/13 13:21:17;;;;;;;2.65;1.80;;;;;;;;;;5013224;28;20060;-87
2023/09/13 13:23:45;;;;;;;3.33;1.38;;;;;;;;;;5012975;28;20021;-87
2023/09/13 13:26:12;;;;;;;3.78;2.03;;;;;;;;;;5014244;28;20018;-87
2023/09/13 13:28:38;;;;;;;1.90;1.60;;;;;;;;;;5016444;28;20029;-87
2023/09/13 13:31:05;;;;;;;2.78;1.73;;;;;;;;;;5025635;28;20280;-88
2023/09/13 13:33:31;;;;;;;1.52;1.42;;;;;;;;;;5024341;28;20021;-87
2023/09/13 13:35:57;;;;;;;1.77;1.60;;;;;;;;;;5032770;28;20029;-87
2023/09/13 13:38:23;;;;;;;2.45;1.70;;;;;;;;;;5014849;28;20113;-87
2023/09/13 13:40:49;;;;;;;2.05;1.83;;;;;;;;;;5014002;28;20049;-87
2023/09/13 13:43:14;;;;;;;1.80;1.70;;;;;;;;;;5016031;28;20057;-86
2023/09/13 13:45:39;;;;;;;2.72;2.03;;;;;;;;;;5017388;28;20026;-86
2023/09/13 13:48:05;;;;;;;2.10;1.77;;;;;;;;;;5021990;28;20466;-85
2023/09/13 13:50:31;;;;;;;2.75;1.80;;;;;;;;;;5012967;28;20021;-86
2023/09/13 13:52:56;;;;;;;2.88;1.70;;;;;;;;;;5045691;28;20118;-88
2023/09/13 13:55:22;;;;;;;1.70;1.60;;;;;;;;;;5042082;28;20022;-87
2023/09/13 13:57:48;;;;;;;3.08;1.92;;;;;;;;;;5027158;28;20037;-87
2023/09/13 14:00:14;;;;;;;3.72;1.95;;;;;;;;;;5004873;28;20026;-88
2023/09/13 14:02:41;;;;;;;2.22;2.03;;;;;;;;;;5022126;28;20535;-88
2023/09/13 14:05:07;;;;;;;4.95;2.00;;;;;;;;;;5032603;28;20087;-87
2023/09/13 14:07:33;;;;;;;2.08;1.88;;;;;;;;;;5004269;28;20025;-87
2023/09/13 14:10:00;;;;;;;2.72;2.05;;;;;;;;;;5010181;28;20026;-87
2023/09/13 14:12:25;;;;;;;5.05;2.53;;;;;;;;;;5010025;28;20026;-88
2023/09/13 14:14:51;;;;;;;3.00;1.75;;;;;;;;;;5035338;28;20553;-87
2023/09/13 14:17:16;;;;;;;4.97;2.10;;;;;;;;;;5011102;28;20298;-88
2023/09/13 14:19:41;;;;;;;3.58;2.10;;;;;;;;;;5012325;28;20022;-88
2023/09/13 14:22:08;;;;;;;2.53;2.10;;;;;;;;;;5053666;22;20092;-80
2023/09/13 14:24:33;;;;;;;2.53;1.77;;;;;;;;;;5114160;28;20020;-82
2023/09/13 14:26:59;;;;;;;2.85;2.13;;;;;;;;;;5092148;28;20432;-82
2023/09/13 14:29:24;;;;;;;2.22;2.00;;;;;;;;;;5090910;28;20038;-82
2023/09/13 14:32:00;;;;;;;1.88;1.70;;;;;;;;;;5083353;28;20028;-81
2023/09/13 14:34:26;;;;;;;1.88;1.73;;;;;;;;;;5107128;28;20023;-84
2023/09/13 14:36:52;;;;;;;4.55;2.13;;;;;;;;;;5117212;28;20020;-79
2023/09/13 14:39:17;;;;;;;2.15;1.95;;;;;;;;;;5118684;28;20012;-79
2023/09/13 14:41:43;;;;;;;2.58;2.20;;;;;;;;;;5111758;28;20023;-82